Time;durP1;ratioP1;P1;durP2;ratioP2;P2;SDS_P1;SDS_P2;PMS_P1;PMS_P2;Temp;Humidity;BMP_temperature;BMP_pressure;BME280_temperature;BME280_humidity;BME280_pressure;Samples;Min_cycle;Max_cycle;Signal;HPM_P1;HPM_P2
2022/12/05 00:00:29;;;;;;;24.88;11.60;;;4.90;99.90;;;;;;5072357;28;20029;-60
2022/12/05 00:02:56;;;;;;;19.02;10.70;;;4.90;99.90;;;;;;5070363;28;20040;-60
2022/12/05 00:05:21;;;;;;;20.95;11.60;;;4.90;99.90;;;;;;5071913;28;20021;-60
2022/12/05 00:07:47;;;;;;;19.33;10.63;;;4.90;99.90;;;;;;5070680;28;20039;-60
2022/12/05 00:10:13;;;;;;;19.50;11.23;;;4.80;99.90;;;;;;5078892;28;21855;-60
2022/12/05 00:12:39;;;;;;;23.38;11.85;;;4.80;99.90;;;;;;5076466;28;20024;-61
2022/12/05 00:15:06;;;;;;;25.48;11.50;;;4.80;99.90;;;;;;5075783;28;20033;-60
2022/12/05 00:17:32;;;;;;;20.90;11.27;;;4.80;99.90;;;;;;5072061;28;20029;-60
2022/12/05 00:19:58;;;;;;;20.50;11.52;;;4.80;99.90;;;;;;5074708;28;20102;-60
2022/12/05 00:22:23;;;;;;;26.63;12.38;;;4.80;99.90;;;;;;5066583;28;20068;-60
2022/12/05 00:24:49;;;;;;;25.20;12.25;;;4.80;99.90;;;;;;5072040;28;20081;-60
2022/12/05 00:27:15;;;;;;;20.42;11.60;;;4.70;99.90;;;;;;5075978;28;20028;-60
2022/12/05 00:29:41;;;;;;;23.40;12.48;;;4.80;99.90;;;;;;5069444;28;20021;-60
2022/12/05 00:32:06;;;;;;;24.75;12.13;;;4.80;99.90;;;;;;5069769;28;20024;-61
2022/12/05 00:34:32;;;;;;;22.48;10.77;;;4.80;99.90;;;;;;5075650;28;20032;-60
2022/12/05 00:36:58;;;;;;;25.20;11.63;;;4.80;99.90;;;;;;5068867;28;20020;-60
2022/12/05 00:39:24;;;;;;;21.88;11.73;;;4.80;99.90;;;;;;5069759;28;20040;-60
2022/12/05 00:41:49;;;;;;;22.10;11.07;;;4.80;99.90;;;;;;5082155;28;20074;-60
2022/12/05 00:44:15;;;;;;;21.33;11.30;;;4.80;99.90;;;;;;5066849;28;20044;-60
2022/12/05 00:46:41;;;;;;;23.63;12.10;;;4.80;99.90;;;;;;5073032;28;20024;-60
2022/12/05 00:49:07;;;;;;;24.13;11.35;;;4.70;99.90;;;;;;5074903;28;20028;-59
2022/12/05 00:51:36;;;;;;;28.10;12.10;;;4.70;99.90;;;;;;5073670;28;20032;-60
2022/12/05 00:54:06;;;;;;;20.95;11.45;;;4.80;99.90;;;;;;5068063;28;20391;-59
2022/12/05 00:56:32;;;;;;;25.30;12.27;;;4.80;99.90;;;;;;5069278;28;20027;-59
2022/12/05 00:59:00;;;;;;;21.55;11.88;;;4.70;99.90;;;;;;5067652;28;20095;-59
2022/12/05 01:01:32;;;;;;;23.88;12.65;;;4.80;99.90;;;;;;5071392;28;20434;-59
2022/12/05 01:04:02;;;;;;;24.77;11.57;;;4.80;99.90;;;;;;5073274;28;20392;-61
2022/12/05 01:06:28;;;;;;;24.58;11.77;;;4.80;99.90;;;;;;5070768;28;20048;-60
2022/12/05 01:08:55;;;;;;;20.92;10.88;;;4.80;99.90;;;;;;5071175;28;20064;-60
2022/12/05 01:11:22;;;;;;;25.77;11.93;;;4.80;99.90;;;;;;5067002;28;20538;-60
2022/12/05 01:13:48;;;;;;;25.15;11.30;;;4.80;99.90;;;;;;5072367;28;20016;-60
2022/12/05 01:16:35;;;;;;;27.15;11.63;;;4.80;99.90;;;;;;5073513;28;20036;-60
2022/12/05 01:19:08;;;;;;;22.55;11.73;;;4.80;99.90;;;;;;5073982;28;20484;-61
2022/12/05 01:21:33;;;;;;;25.85;12.23;;;4.80;99.90;;;;;;5072257;28;20078;-60
2022/12/05 01:23:59;;;;;;;21.00;10.85;;;4.80;99.90;;;;;;5070123;28;20036;-60
2022/12/05 01:26:25;;;;;;;28.08;11.77;;;4.80;99.90;;;;;;5072260;28;20085;-59
2022/12/05 01:28:51;;;;;;;26.98;12.15;;;4.80;99.90;;;;;;5069252;28;20099;-62
2022/12/05 01:31:29;;;;;;;21.63;11.52;;;4.80;99.90;;;;;;5066417;28;20048;-61
2022/12/05 01:33:57;;;;;;;26.10;12.43;;;4.70;99.90;;;;;;5073938;28;20434;-61
2022/12/05 01:36:24;;;;;;;27.17;12.98;;;4.70;99.90;;;;;;5052207;28;20021;-61
2022/12/05 01:38:50;;;;;;;23.30;12.32;;;4.80;99.90;;;;;;5069084;28;20032;-61
2022/12/05 01:41:19;;;;;;;27.75;12.88;;;4.80;99.90;;;;;;5070256;28;20430;-61
2022/12/05 01:44:04;;;;;;;24.38;12.07;;;4.80;99.90;;;;;;5075472;28;20089;-60
2022/12/05 01:46:33;;;;;;;25.65;12.15;;;4.80;99.90;;;;;;5066897;28;20029;-63
2022/12/05 01:49:10;;;;;;;27.05;12.25;;;4.80;99.90;;;;;;5069816;28;20024;-60
2022/12/05 01:51:39;;;;;;;29.77;12.57;;;4.80;99.90;;;;;;5069345;28;20082;-60
2022/12/05 01:54:05;;;;;;;26.33;12.45;;;4.80;99.90;;;;;;5068373;28;20020;-61
2022/12/05 01:56:33;;;;;;;29.13;13.07;;;4.80;99.90;;;;;;5073373;28;20073;-60
2022/12/05 01:59:01;;;;;;;26.17;12.23;;;4.80;99.90;;;;;;5072223;28;20418;-60
2022/12/05 02:01:26;;;;;;;25.08;12.63;;;4.80;99.90;;;;;;5074021;28;20012;-60
2022/12/05 02:03:56;;;;;;;24.73;12.50;;;4.80;99.90;;;;;;5069767;28;20503;-60
2022/12/05 02:06:23;;;;;;;25.48;13.18;;;4.80;99.90;;;;;;5067300;28;20035;-63
2022/12/05 02:08:51;;;;;;;24.65;12.45;;;4.90;99.90;;;;;;5069802;28;20062;-60
2022/12/05 02:11:17;;;;;;;27.70;13.57;;;4.90;99.90;;;;;;5061123;28;20029;-61
2022/12/05 02:14:06;;;;;;;30.95;14.00;;;4.80;99.90;;;;;;5070747;28;20025;-62
2022/12/05 02:16:52;;;;;;;25.17;11.73;;;4.80;99.90;;;;;;5064480;28;20073;-61
2022/12/05 02:19:44;;;;;;;26.67;12.40;;;4.90;99.90;;;;;;5055366;28;20108;-60
2022/12/05 02:22:33;;;;;;;25.50;12.57;;;4.90;99.90;;;;;;5064094;28;20062;-62
2022/12/05 02:25:21;;;;;;;23.92;13.32;;;4.80;99.90;;;;;;5063368;28;20403;-61
2022/12/05 02:28:15;;;;;;;26.65;13.27;;;4.80;99.90;;;;;;5068334;28;20480;-61
2022/12/05 02:30:48;;;;;;;29.13;13.68;;;4.80;99.90;;;;;;5067284;28;20111;-61
2022/12/05 02:33:33;;;;;;;25.90;13.02;;;4.80;99.90;;;;;;5061113;28;20048;-63
2022/12/05 02:36:25;;;;;;;28.95;13.05;;;4.80;99.90;;;;;;5068878;28;20118;-61
2022/12/05 02:39:21;;;;;;;26.40;14.20;;;4.80;99.90;;;;;;5072079;28;20032;-61
2022/12/05 02:41:56;;;;;;;29.20;14.32;;;4.80;99.90;;;;;;5064403;28;20268;-61
2022/12/05 02:44:46;;;;;;;25.88;13.65;;;4.80;99.90;;;;;;5060146;28;20045;-61
2022/12/05 02:47:16;;;;;;;32.97;13.85;;;4.80;99.90;;;;;;5074233;28;20041;-62
2022/12/05 02:49:42;;;;;;;23.55;12.35;;;4.80;99.90;;;;;;5072802;28;20032;-64
2022/12/05 02:52:13;;;;;;;27.10;14.20;;;4.80;99.90;;;;;;5072556;28;20089;-61
2022/12/05 02:54:42;;;;;;;28.73;13.75;;;4.80;99.90;;;;;;5070840;28;20029;-63
2022/12/05 02:57:08;;;;;;;26.75;14.60;;;4.80;99.90;;;;;;5066761;28;20024;-64
2022/12/05 02:59:35;;;;;;;25.45;13.65;;;4.80;99.90;;;;;;5069602;28;20034;-65
2022/12/05 03:02:01;;;;;;;31.00;15.05;;;4.80;99.90;;;;;;5073297;28;20025;-60
2022/12/05 03:04:30;;;;;;;29.27;14.40;;;4.90;99.90;;;;;;5069301;28;20039;-62
2022/12/05 03:07:02;;;;;;;32.28;15.00;;;4.90;99.90;;;;;;5070120;28;20032;-62
2022/12/05 03:09:34;;;;;;;32.08;14.23;;;4.80;99.90;;;;;;5072395;28;20357;-62
2022/12/05 03:12:12;;;;;;;;;;;4.80;99.90;;;;;;5071485;28;20093;-60
2022/12/05 03:14:52;;;;;;;33.30;13.07;;;4.80;99.90;;;;;;5067213;28;19962;-60
2022/12/05 03:17:23;;;;;;;28.10;14.00;;;4.80;99.90;;;;;;5075389;28;20033;-61
2022/12/05 03:20:13;;;;;;;31.63;14.32;;;4.80;99.90;;;;;;5072094;28;20020;-60
2022/12/05 03:22:50;;;;;;;28.45;14.52;;;4.90;99.90;;;;;;5071427;28;20044;-61
2022/12/05 03:25:16;;;;;;;25.77;13.60;;;4.90;99.90;;;;;;5066080;28;20024;-61
2022/12/05 03:27:57;;;;;;;28.08;15.23;;;4.90;99.90;;;;;;5082320;28;20056;-61
2022/12/05 03:30:23;;;;;;;30.25;15.32;;;4.90;99.90;;;;;;5070250;28;20484;-60
2022/12/05 03:33:01;;;;;;;30.08;14.40;;;4.80;99.90;;;;;;5077250;28;20487;-60
2022/12/05 03:35:41;;;;;;;30.85;14.88;;;4.90;99.90;;;;;;5071069;28;20066;-64
2022/12/05 03:38:19;;;;;;;26.83;14.05;;;4.90;99.90;;;;;;5072848;28;20113;-61
2022/12/05 03:40:54;;;;;;;30.60;14.73;;;4.90;99.90;;;;;;5072124;28;20032;-63
2022/12/05 03:43:54;;;;;;;31.10;14.82;;;4.90;99.90;;;;;;5059176;28;20033;-68
2022/12/05 03:46:31;;;;;;;30.83;14.38;;;4.90;99.90;;;;;;5073175;28;20043;-61
2022/12/05 03:49:19;;;;;;;30.02;15.15;;;4.90;99.90;;;;;;5071905;28;20025;-61
2022/12/05 03:52:22;;;;;;;37.35;14.98;;;4.90;99.90;;;;;;5078138;28;20025;-61
2022/12/05 03:55:03;;;;;;;31.58;14.40;;;4.90;99.90;;;;;;5080345;28;20536;-62
2022/12/05 03:57:42;;;;;;;31.35;14.57;;;4.90;99.90;;;;;;5070321;28;20032;-65
2022/12/05 04:00:10;;;;;;;31.08;14.90;;;4.90;99.90;;;;;;5066476;28;20039;-65
2022/12/05 04:02:46;;;;;;;29.60;15.23;;;4.90;99.90;;;;;;5076713;28;20093;-60
2022/12/05 04:05:22;;;;;;;28.42;15.13;;;4.90;99.90;;;;;;5062309;28;20028;-61
2022/12/05 04:07:59;;;;;;;28.17;13.98;;;4.90;99.90;;;;;;5072653;28;20051;-60
2022/12/05 04:10:31;;;;;;;30.00;15.32;;;4.90;99.90;;;;;;5064908;28;20513;-61
2022/12/05 04:13:16;;;;;;;34.50;14.95;;;4.90;99.90;;;;;;5076818;28;20036;-60
2022/12/05 04:18:45;;;;;;;32.45;16.58;;;5.00;99.90;;;;;;5073285;28;20089;-60
2022/12/05 04:26:45;;;;;;;28.05;14.68;;;5.00;99.90;;;;;;5066865;28;20078;-61
2022/12/05 04:29:21;;;;;;;35.53;15.13;;;5.00;99.90;;;;;;5064378;28;20064;-61
2022/12/05 04:31:52;;;;;;;29.08;14.85;;;5.00;99.90;;;;;;5072283;28;20032;-60
2022/12/05 04:34:20;;;;;;;32.90;16.00;;;5.00;99.90;;;;;;5066438;28;20064;-60
2022/12/05 04:37:01;;;;;;;32.03;16.05;;;5.00;99.90;;;;;;5070336;28;20024;-60
2022/12/05 04:39:43;;;;;;;33.42;15.98;;;5.00;99.90;;;;;;5067103;28;20025;-60
2022/12/05 04:42:18;;;;;;;22.13;11.40;;;5.10;99.90;;;;;;5069665;28;20039;-60
2022/12/05 04:44:53;;;;;;;32.53;16.60;;;5.10;99.90;;;;;;5068813;28;20372;-60
2022/12/05 04:47:23;;;;;;;29.77;15.32;;;5.00;99.90;;;;;;5060930;28;20035;-60
2022/12/05 04:49:51;;;;;;;30.08;15.32;;;5.00;99.90;;;;;;5073723;28;20074;-60
2022/12/05 04:52:17;;;;;;;33.60;16.70;;;5.00;99.90;;;;;;5069569;28;20162;-60
2022/12/05 04:54:56;;;;;;;38.53;17.33;;;5.00;99.90;;;;;;5071417;28;20116;-60
2022/12/05 04:57:39;;;;;;;32.67;15.68;;;5.00;99.90;;;;;;5062800;28;20159;-60
2022/12/05 05:00:05;;;;;;;29.45;15.18;;;5.00;99.90;;;;;;5067511;28;20027;-61
2022/12/05 05:02:44;;;;;;;40.05;17.10;;;5.10;99.90;;;;;;5070733;28;20503;-60
2022/12/05 05:05:14;;;;;;;33.38;16.42;;;5.10;99.90;;;;;;5068951;28;20024;-60
2022/12/05 05:07:48;;;;;;;28.98;15.52;;;5.10;99.90;;;;;;5070164;28;20050;-59
2022/12/05 05:10:18;;;;;;;30.63;15.10;;;5.10;99.90;;;;;;5066575;28;20518;-60
2022/12/05 05:12:44;;;;;;;30.13;15.50;;;5.10;99.90;;;;;;5066546;28;20508;-61
2022/12/05 05:15:10;;;;;;;31.35;16.10;;;5.10;99.90;;;;;;5069414;28;20028;-59
2022/12/05 05:17:36;;;;;;;27.90;15.57;;;5.10;99.90;;;;;;5071572;28;20036;-60
2022/12/05 05:22:48;;;;;;;28.85;14.57;;;5.10;99.90;;;;;;5069799;28;20549;-61
2022/12/05 05:25:13;;;;;;;29.20;15.77;;;5.10;99.90;;;;;;5069384;28;20032;-60
2022/12/05 05:27:39;;;;;;;29.23;15.38;;;5.10;99.90;;;;;;5070816;28;20016;-60
2022/12/05 05:30:06;;;;;;;32.35;17.42;;;5.10;99.90;;;;;;5069391;28;20035;-60
2022/12/05 05:32:32;;;;;;;28.20;16.02;;;5.10;99.90;;;;;;5069297;28;20066;-60
2022/12/05 05:34:58;;;;;;;31.67;16.95;;;5.10;99.90;;;;;;5073580;28;20031;-60
2022/12/05 05:37:23;;;;;;;29.25;16.40;;;5.20;99.90;;;;;;5069106;28;20021;-61
2022/12/05 05:39:49;;;;;;;33.42;16.30;;;5.20;99.90;;;;;;5070550;28;20048;-60
2022/12/05 05:42:15;;;;;;;32.17;16.88;;;5.20;99.90;;;;;;5064254;28;20035;-61
2022/12/05 05:44:40;;;;;;;28.67;16.48;;;5.20;99.90;;;;;;5073770;28;20043;-59
2022/12/05 05:47:06;;;;;;;30.85;15.88;;;5.20;99.90;;;;;;5068397;28;20033;-60
2022/12/05 05:49:32;;;;;;;30.67;16.48;;;5.20;99.90;;;;;;5070149;28;20029;-61
2022/12/05 05:51:58;;;;;;;33.10;16.63;;;5.20;99.90;;;;;;5069213;28;20031;-61
2022/12/05 05:54:23;;;;;;;27.23;14.88;;;5.20;99.90;;;;;;5071241;28;20020;-61
2022/12/05 05:56:49;;;;;;;29.90;15.68;;;5.20;99.90;;;;;;5067313;28;20060;-61
2022/12/05 05:59:15;;;;;;;30.48;15.60;;;5.20;99.90;;;;;;5068464;28;20187;-59
2022/12/05 06:01:40;;;;;;;30.90;17.27;;;5.20;99.90;;;;;;5061807;28;20107;-60
2022/12/05 06:04:06;;;;;;;29.27;15.80;;;5.30;99.90;;;;;;5067105;28;20035;-60
2022/12/05 06:06:32;;;;;;;35.38;17.08;;;5.20;99.90;;;;;;5069490;28;20021;-59
2022/12/05 06:08:58;;;;;;;37.10;16.67;;;5.20;99.90;;;;;;5070374;28;20027;-59
2022/12/05 06:11:26;;;;;;;33.05;17.63;;;5.20;99.90;;;;;;5068052;28;20017;-60
2022/12/05 06:13:57;;;;;;;28.42;16.27;;;5.20;99.90;;;;;;5066332;28;20086;-61
2022/12/05 06:16:23;;;;;;;34.65;16.63;;;5.30;99.90;;;;;;5062123;28;20112;-61
2022/12/05 06:18:50;;;;;;;31.00;16.23;;;5.30;99.90;;;;;;5069874;28;20124;-60
2022/12/05 06:21:16;;;;;;;32.55;16.45;;;5.30;99.90;;;;;;5066822;28;20169;-60
2022/12/05 06:23:42;;;;;;;30.02;15.68;;;5.40;99.90;;;;;;5069968;28;20032;-61
2022/12/05 06:26:12;;;;;;;27.77;16.50;;;5.30;99.90;;;;;;5067056;28;20025;-59
2022/12/05 06:28:39;;;;;;;26.83;14.95;;;5.30;99.90;;;;;;5069457;28;20020;-60
2022/12/05 06:31:11;;;;;;;29.63;15.82;;;5.30;99.90;;;;;;5068026;28;20107;-61
2022/12/05 06:33:37;;;;;;;27.48;15.85;;;5.40;99.90;;;;;;5068567;28;20074;-60
2022/12/05 06:36:09;;;;;;;26.67;15.15;;;5.40;99.90;;;;;;5074740;28;20486;-60
2022/12/05 06:38:35;;;;;;;30.00;15.55;;;5.40;99.90;;;;;;5069829;28;20037;-60
2022/12/05 06:41:06;;;;;;;41.85;15.45;;;5.40;99.90;;;;;;5069317;28;20032;-60
2022/12/05 06:43:32;;;;;;;31.02;15.60;;;5.50;99.90;;;;;;5068627;28;20040;-60
2022/12/05 06:45:58;;;;;;;24.20;14.25;;;5.50;99.90;;;;;;5065906;28;20031;-60
2022/12/05 06:48:24;;;;;;;30.45;15.60;;;5.50;99.90;;;;;;5068000;28;20024;-60
2022/12/05 06:50:53;;;;;;;29.75;15.55;;;5.50;99.90;;;;;;5067082;28;20046;-59
2022/12/05 06:53:19;;;;;;;26.20;15.38;;;5.50;99.90;;;;;;5057622;28;20392;-59
2022/12/05 06:55:55;;;;;;;28.08;14.82;;;5.50;99.90;;;;;;5070663;28;20073;-60
2022/12/05 06:58:21;;;;;;;26.77;15.18;;;5.50;99.90;;;;;;5071467;28;20060;-60
2022/12/05 07:03:31;;;;;;;28.00;15.68;;;5.60;99.90;;;;;;5076749;28;20093;-59
2022/12/05 07:06:00;;;;;;;28.00;16.27;;;5.60;99.90;;;;;;5079587;28;20418;-61
2022/12/05 07:08:25;;;;;;;32.22;16.63;;;5.60;99.90;;;;;;5075027;28;20440;-60
2022/12/05 07:10:52;;;;;;;24.60;14.70;;;5.60;99.90;;;;;;5066724;28;20037;-62
2022/12/05 07:13:18;;;;;;;25.90;14.73;;;5.70;99.90;;;;;;5055008;28;20059;-61
2022/12/05 07:15:47;;;;;;;23.00;14.25;;;5.70;99.90;;;;;;5070362;28;20341;-61
2022/12/05 07:18:14;;;;;;;24.95;14.98;;;5.70;99.90;;;;;;5064311;28;20116;-61
2022/12/05 07:20:40;;;;;;;25.17;14.73;;;5.70;99.90;;;;;;5069048;28;20020;-59
2022/12/05 07:23:05;;;;;;;23.98;13.82;;;5.70;99.90;;;;;;5066979;28;20110;-60
2022/12/05 07:25:31;;;;;;;28.50;14.95;;;5.70;99.90;;;;;;5068691;28;20029;-60
2022/12/05 07:27:57;;;;;;;28.95;15.57;;;5.80;99.90;;;;;;5068666;28;20041;-60
2022/12/05 07:30:23;;;;;;;25.00;14.10;;;5.80;99.90;;;;;;5065933;28;20032;-60
2022/12/05 07:32:48;;;;;;;26.45;14.40;;;5.80;99.90;;;;;;5064414;28;20387;-60
2022/12/05 07:35:14;;;;;;;28.15;16.00;;;5.80;99.90;;;;;;5067386;28;20047;-60
2022/12/05 07:37:40;;;;;;;26.15;14.88;;;5.80;99.90;;;;;;5068991;28;20070;-60
2022/12/05 07:40:06;;;;;;;27.80;14.98;;;5.80;99.90;;;;;;5066692;28;20071;-61
2022/12/05 07:42:32;;;;;;;21.63;13.23;;;5.80;99.90;;;;;;5065566;28;20484;-61
2022/12/05 07:44:58;;;;;;;24.00;15.57;;;5.80;99.90;;;;;;5063296;28;20025;-59
2022/12/05 07:47:23;;;;;;;24.83;15.07;;;5.90;99.90;;;;;;5060266;28;20420;-61
2022/12/05 07:49:49;;;;;;;23.95;14.07;;;5.90;99.90;;;;;;5071877;28;20124;-62
2022/12/05 07:52:15;;;;;;;26.38;14.63;;;5.90;99.90;;;;;;5077557;28;20517;-60
2022/12/05 07:54:40;;;;;;;27.70;14.05;;;5.90;99.90;;;;;;5077410;28;20388;-60
2022/12/05 07:57:06;;;;;;;22.00;14.15;;;5.90;99.90;;;;;;5068845;28;20028;-61
2022/12/05 07:59:32;;;;;;;23.20;13.77;;;5.90;99.90;;;;;;5071810;28;20456;-60
2022/12/05 08:01:58;;;;;;;26.85;13.98;;;5.90;99.90;;;;;;5074163;28;20031;-61
2022/12/05 08:04:24;;;;;;;26.45;13.73;;;5.90;99.90;;;;;;5070862;28;20073;-61
2022/12/05 08:06:49;;;;;;;23.90;13.57;;;6.00;99.90;;;;;;5072647;28;20052;-62
2022/12/05 08:09:15;;;;;;;22.52;14.13;;;6.00;99.90;;;;;;5070417;28;20121;-60
2022/12/05 08:11:41;;;;;;;25.73;13.82;;;6.00;99.90;;;;;;5071676;28;20115;-60
2022/12/05 08:14:07;;;;;;;22.67;12.55;;;6.00;99.90;;;;;;5070131;28;20123;-61
2022/12/05 08:16:33;;;;;;;23.65;13.70;;;6.00;99.90;;;;;;5071967;28;20032;-61
2022/12/05 08:19:02;;;;;;;25.60;15.13;;;6.00;99.90;;;;;;5059420;28;20111;-60
2022/12/05 08:21:28;;;;;;;27.48;14.63;;;6.00;99.90;;;;;;5071831;28;20045;-61
2022/12/05 08:23:55;;;;;;;25.60;13.88;;;6.00;99.90;;;;;;5071184;28;20116;-60
2022/12/05 08:26:29;;;;;;;24.35;12.40;;;6.10;99.90;;;;;;5064576;28;20016;-62
2022/12/05 08:28:58;;;;;;;26.90;13.95;;;6.10;99.90;;;;;;5060266;28;20037;-61
2022/12/05 08:31:25;;;;;;;23.65;14.55;;;6.10;99.90;;;;;;5063599;28;20472;-61
2022/12/05 08:33:51;;;;;;;28.17;14.52;;;6.10;99.90;;;;;;5052865;28;20086;-61
2022/12/05 08:36:18;;;;;;;22.70;13.82;;;6.10;99.90;;;;;;5061373;28;20037;-61
2022/12/05 08:38:45;;;;;;;25.08;14.30;;;6.10;99.90;;;;;;5060533;28;20032;-61
2022/12/05 08:41:14;;;;;;;33.20;16.05;;;6.10;99.90;;;;;;5065251;28;20385;-61
2022/12/05 08:43:40;;;;;;;25.90;13.55;;;6.10;99.90;;;;;;5062931;28;20038;-61
2022/12/05 08:46:07;;;;;;;27.98;14.88;;;6.20;99.90;;;;;;5062550;28;20033;-62
2022/12/05 08:48:33;;;;;;;28.30;14.57;;;6.20;99.90;;;;;;5069076;28;20025;-60
2022/12/05 08:51:07;;;;;;;21.15;11.90;;;6.20;99.90;;;;;;5067330;28;20039;-62
2022/12/05 08:53:37;;;;;;;23.35;13.93;;;6.10;99.90;;;;;;5070445;28;20078;-61
2022/12/05 08:56:04;;;;;;;51.28;26.42;;;6.10;99.90;;;;;;5068787;28;20120;-57
2022/12/05 08:58:30;;;;;;;29.75;16.45;;;6.20;99.90;;;;;;5065332;28;20024;-61
2022/12/05 09:01:29;;;;;;;25.27;15.05;;;6.20;99.90;;;;;;5068645;28;20123;-61
2022/12/05 09:03:55;;;;;;;27.83;16.42;;;6.20;99.90;;;;;;5060799;28;20055;-62
2022/12/05 09:06:23;;;;;;;44.88;23.25;;;6.20;99.90;;;;;;5068923;28;20044;-63
2022/12/05 09:08:53;;;;;;;44.60;20.25;;;6.20;99.90;;;;;;5069331;28;20033;-62
2022/12/05 09:11:22;;;;;;;25.52;14.23;;;6.30;99.90;;;;;;5065261;28;20032;-62
2022/12/05 09:13:50;;;;;;;31.60;16.55;;;6.30;99.90;;;;;;5068451;28;20058;-62
2022/12/05 09:16:22;;;;;;;28.98;16.27;;;6.30;99.90;;;;;;5067527;28;20024;-63
2022/12/05 09:18:49;;;;;;;26.13;15.00;;;6.30;99.90;;;;;;5069791;28;20021;-62
2022/12/05 09:21:20;;;;;;;25.02;14.27;;;6.30;99.90;;;;;;5068564;28;20051;-61
2022/12/05 09:23:47;;;;;;;28.13;15.80;;;6.30;99.90;;;;;;5070021;28;20135;-62
2022/12/05 09:26:15;;;;;;;23.60;14.90;;;6.30;99.90;;;;;;5067909;28;20071;-61
2022/12/05 09:28:42;;;;;;;24.92;15.93;;;6.30;99.90;;;;;;5071201;28;20119;-61
2022/12/05 09:31:13;;;;;;;26.40;16.40;;;6.30;99.90;;;;;;5077455;28;20062;-62
2022/12/05 09:33:39;;;;;;;32.28;17.17;;;6.30;99.90;;;;;;5076247;28;20020;-63
2022/12/05 09:36:09;;;;;;;25.88;16.65;;;6.30;99.90;;;;;;5069172;28;20099;-61
2022/12/05 09:38:35;;;;;;;29.27;15.10;;;6.30;99.90;;;;;;5076230;28;20038;-62
2022/12/05 09:44:46;;;;;;;24.52;14.18;;;6.30;99.90;;;;;;5076796;28;20535;-63
2022/12/05 09:47:35;;;;;;;23.45;14.52;;;6.40;99.90;;;;;;5061789;28;20024;-63
2022/12/05 09:50:24;;;;;;;23.02;14.95;;;6.50;99.90;;;;;;5075685;28;20024;-62
2022/12/05 09:53:12;;;;;;;26.50;14.40;;;6.50;99.90;;;;;;5075466;28;20032;-61
2022/12/05 09:55:50;;;;;;;23.23;14.50;;;6.50;99.90;;;;;;5074063;28;20078;-63
2022/12/05 09:58:24;;;;;;;25.33;13.68;;;6.50;99.90;;;;;;5071180;28;20100;-63
2022/12/05 10:00:58;;;;;;;29.33;15.45;;;6.50;99.90;;;;;;5076278;28;20020;-63
2022/12/05 10:03:47;;;;;;;27.63;14.82;;;6.50;99.90;;;;;;5074582;28;20054;-63
2022/12/05 10:06:52;;;;;;;33.53;15.18;;;6.50;99.90;;;;;;5073604;28;20062;-66
2022/12/05 10:09:36;;;;;;;39.15;17.95;;;6.50;99.90;;;;;;5064426;28;20032;-62
2022/12/05 10:12:21;;;;;;;38.80;20.30;;;6.50;99.90;;;;;;5064325;28;20047;-61
2022/12/05 10:15:07;;;;;;;47.92;21.33;;;6.40;99.90;;;;;;5073465;28;20076;-63
2022/12/05 10:17:36;;;;;;;40.10;19.92;;;6.40;99.90;;;;;;5058803;28;20032;-63
2022/12/05 10:20:12;;;;;;;39.67;18.58;;;6.40;99.90;;;;;;5075698;28;20085;-62
2022/12/05 10:22:53;;;;;;;32.38;16.73;;;6.50;99.90;;;;;;5075650;28;20101;-62
2022/12/05 10:25:21;;;;;;;27.23;14.00;;;6.50;99.90;;;;;;5067808;28;20475;-61
2022/12/05 10:27:57;;;;;;;27.63;14.82;;;6.50;99.90;;;;;;5077204;28;20021;-62
2022/12/05 10:30:26;;;;;;;33.80;17.50;;;6.50;99.90;;;;;;5068792;28;21262;-63
2022/12/05 10:32:56;;;;;;;27.73;15.13;;;6.50;99.90;;;;;;5078814;28;20415;-62
2022/12/05 10:35:31;;;;;;;23.40;13.65;;;6.40;99.90;;;;;;5071005;28;20576;-62
2022/12/05 10:38:05;;;;;;;25.65;14.45;;;6.60;99.90;;;;;;5075883;28;20031;-61
2022/12/05 10:40:40;;;;;;;25.90;14.18;;;6.60;99.90;;;;;;5065990;28;20035;-61
2022/12/05 10:43:09;;;;;;;21.38;12.50;;;6.50;99.90;;;;;;5066989;28;20040;-63
2022/12/05 10:45:44;;;;;;;21.60;12.77;;;6.50;99.90;;;;;;5063487;28;20124;-63
2022/12/05 10:48:13;;;;;;;27.33;13.98;;;6.60;99.90;;;;;;5064855;28;20499;-61
2022/12/05 10:50:41;;;;;;;20.85;13.00;;;6.70;99.90;;;;;;5069116;28;20499;-62
2022/12/05 10:53:12;;;;;;;21.75;12.60;;;6.70;99.90;;;;;;5066580;28;20107;-63
2022/12/05 10:55:44;;;;;;;23.00;13.02;;;6.80;99.90;;;;;;5065231;28;20028;-62
2022/12/05 10:58:22;;;;;;;22.35;12.38;;;6.80;99.90;;;;;;5062905;28;20108;-62
2022/12/05 11:00:51;;;;;;;21.90;12.48;;;6.80;99.90;;;;;;5069561;28;20021;-61
2022/12/05 11:03:36;;;;;;;17.90;10.55;;;6.80;99.90;;;;;;5068274;28;20097;-64
2022/12/05 11:06:17;;;;;;;20.25;10.52;;;6.90;99.90;;;;;;5068863;28;20383;-61
2022/12/05 11:09:04;;;;;;;17.30;10.23;;;6.90;99.90;;;;;;5063116;28;20017;-62
2022/12/05 11:11:32;;;;;;;22.30;11.15;;;6.90;99.90;;;;;;5068220;28;20467;-62
2022/12/05 11:14:01;;;;;;;17.27;10.80;;;6.90;99.90;;;;;;5068878;28;20422;-63
2022/12/05 11:16:32;;;;;;;14.10;9.50;;;7.00;99.90;;;;;;5062157;28;20033;-62
2022/12/05 11:19:27;;;;;;;21.77;11.45;;;6.90;99.90;;;;;;5066948;28;20024;-62
2022/12/05 11:21:53;;;;;;;19.90;10.85;;;6.90;99.90;;;;;;5070037;28;20119;-63
2022/12/05 11:24:31;;;;;;;15.70;9.73;;;6.90;99.90;;;;;;5074660;28;20060;-63
2022/12/05 11:26:59;;;;;;;19.17;10.48;;;6.80;99.90;;;;;;5070736;28;20383;-62
2022/12/05 11:29:37;;;;;;;20.15;9.98;;;6.80;99.90;;;;;;5071341;28;20430;-62
2022/12/05 11:32:15;;;;;;;15.73;9.45;;;6.80;99.90;;;;;;5076918;28;20028;-62
2022/12/05 11:35:06;;;;;;;17.95;10.65;;;6.70;99.90;;;;;;5065911;28;20027;-63
2022/12/05 11:37:50;;;;;;;17.15;10.38;;;6.70;99.90;;;;;;5080402;28;20027;-63
2022/12/05 11:40:58;;;;;;;18.58;10.95;;;6.80;99.90;;;;;;5053471;28;20472;-62
2022/12/05 11:43:57;;;;;;;19.65;10.85;;;6.80;99.90;;;;;;5021787;28;20046;-63
2022/12/05 11:46:40;;;;;;;14.30;9.65;;;6.80;99.90;;;;;;5025314;28;20083;-63
2022/12/05 11:49:12;;;;;;;18.67;10.30;;;6.80;99.90;;;;;;5027533;28;20040;-63
2022/12/05 11:51:47;;;;;;;22.75;12.07;;;6.70;99.90;;;;;;5029237;28;20080;-63
2022/12/05 11:54:40;;;;;;;16.45;11.02;;;6.80;99.90;;;;;;5028865;28;20087;-62
2022/12/05 11:57:08;;;;;;;18.73;10.60;;;6.80;99.90;;;;;;5026162;28;20479;-60
2022/12/05 11:59:37;;;;;;;21.08;10.75;;;6.70;99.90;;;;;;5029788;28;20057;-63
2022/12/05 12:02:14;;;;;;;23.33;10.68;;;6.80;99.90;;;;;;5028177;28;20033;-63
2022/12/05 12:04:50;;;;;;;37.35;11.77;;;6.70;99.90;;;;;;5023465;28;20077;-62
2022/12/05 12:07:34;;;;;;;20.17;11.57;;;6.80;99.90;;;;;;5029822;28;20045;-61
2022/12/05 12:10:30;;;;;;;22.20;10.85;;;6.70;99.90;;;;;;5031838;28;20033;-62
2022/12/05 12:13:15;;;;;;;22.23;12.07;;;6.90;99.90;;;;;;5024062;28;20244;-63
2022/12/05 12:15:57;;;;;;;18.65;10.88;;;6.90;99.90;;;;;;5013896;28;20025;-61
2022/12/05 12:18:42;;;;;;;24.70;11.77;;;7.00;99.90;;;;;;5033090;28;20589;-62
2022/12/05 12:21:49;;;;;;;17.70;10.77;;;7.00;99.90;;;;;;5072239;28;20400;-62
2022/12/05 12:24:50;;;;;;;18.52;10.35;;;7.00;99.90;;;;;;5056705;28;20095;-62
2022/12/05 12:27:51;;;;;;;19.73;10.57;;;7.00;99.90;;;;;;5019337;28;20033;-62
2022/12/05 12:30:40;;;;;;;19.52;10.30;;;7.10;99.90;;;;;;5020288;28;20447;-62
2022/12/05 12:33:28;;;;;;;20.38;11.23;;;7.10;99.90;;;;;;5017993;28;20049;-63
2022/12/05 12:36:03;;;;;;;22.33;11.35;;;7.10;99.90;;;;;;5013615;28;20092;-62
2022/12/05 12:38:39;;;;;;;19.48;11.20;;;7.10;99.90;;;;;;5004470;28;20440;-62
2022/12/05 12:41:41;;;;;;;22.77;10.98;;;7.10;99.90;;;;;;4995671;28;20030;-62
2022/12/05 12:44:34;;;;;;;18.60;11.75;;;7.10;99.90;;;;;;5019349;28;20060;-62
2022/12/05 12:47:03;;;;;;;20.23;10.88;;;7.10;99.90;;;;;;5025172;28;20535;-63
2022/12/05 12:49:59;;;;;;;24.48;12.50;;;7.10;99.90;;;;;;5023092;28;20030;-63
2022/12/05 12:52:39;;;;;;;18.80;11.57;;;7.10;99.90;;;;;;5024658;28;20041;-62
2022/12/05 12:55:35;;;;;;;20.50;11.25;;;7.10;99.90;;;;;;5017784;28;20125;-62
2022/12/05 12:58:49;;;;;;;17.95;11.13;;;7.20;99.90;;;;;;5025765;28;20046;-63
2022/12/05 13:01:30;;;;;;;19.90;11.57;;;7.20;99.90;;;;;;5019463;28;20068;-63
2022/12/05 13:04:13;;;;;;;17.67;11.00;;;7.30;99.90;;;;;;5038042;28;20056;-63
2022/12/05 13:06:48;;;;;;;17.15;10.95;;;7.30;99.90;;;;;;5065430;28;20096;-62
2022/12/05 13:09:18;;;;;;;22.27;11.88;;;7.40;99.90;;;;;;5069162;28;20040;-62
2022/12/05 13:11:46;;;;;;;22.02;11.60;;;7.40;99.90;;;;;;5069144;28;20025;-62
2022/12/05 13:14:14;;;;;;;21.45;12.05;;;7.50;99.90;;;;;;5068462;28;20033;-62
2022/12/05 13:16:47;;;;;;;21.80;11.27;;;7.50;99.90;;;;;;5071218;28;20075;-62
2022/12/05 13:19:52;;;;;;;22.05;11.95;;;7.50;99.90;;;;;;5067389;28;20066;-63
2022/12/05 13:22:22;;;;;;;21.55;10.77;;;7.60;99.90;;;;;;5057321;28;20507;-63
2022/12/05 13:24:52;;;;;;;17.88;10.50;;;7.50;99.90;;;;;;5065609;28;20043;-63